SANTO DOMINGO 25 DE JUNIO DEL 2017

 

 

FTDR31 MDSD 251000Z
TAF

  

TAF MDPP 251000Z 2512/2612 00000KT 9999 BKN016 PROB30 2512/2518 7000 -RA FEW014CB BKN016 BKN070= 

TAF MDST 251000Z 2512/2612 13005KT 9999 SCT016 SCT300 PROB30 2512/2518 7000 -RA FEW016CB SCT018 SCT300 BECMG 2516/2518 13018KT=

TAF MDPC 251000Z 2512/2612  07010KT 9999 FEW016CB SCT018 SCT300 PROB30 2512/2518 8000 VCSHRA FEW016CB BKN018 TEMPO 2518/2600 6000 TSRA FEW014CB BKN015 SCT070=

TAF MDBH 251000Z 2512/2612  13016KT 9999 FEW018CB SCT020 SCT100 PROB30 2517/2521 8000 -RA FEW016CB SCT018 BKN080=

TAF MDJB 251000Z 2512/2612  06008KT 9999 BKN018 PROB30 2515/2521 7000 -TSRA FEW014CB BKN016 SCT070 BECMG 2518/2520 18010KT=

TAF MDSD 251000Z 2512/2612  06008KT 9999  FEW016CB SCT018  SCT300 BECMG 2515/2517 15014KT PROB30  2516/2521 7000 -TSRA FEW016CB BKN018 BKN070=

TAF MDLR 251000Z 2512/2612  09010KT 9999 SCT020  SCT070 PROB30 2515/2521 8000 –RA FEW014CB BKN016 SCT070 BECMG 2517/2519 13014KT=  

TAF MDCY 251000Z 2512/2612  09015KT 9999 FEW016CB BKN018  PROB30 2513/2517 8000 –RA FEW014CB BKN015 BKN070 TEMPO 2518/2521 6000 –TSRA FEW014CB BKN016 BKN070 BECMG 2523/2501 00000KT=

 

MDPP AEROPUERTO INTERNACIONAL LA UNION PUERTO PLATA

MDST AEROPUERTO INTERNACIONAL DE SANTIAGO

MDPC AEROPUERTO INTERNACIONAL PUNTA CANA

MDBH AEROPUERTO INTERNACIONAL DE BARAHONA

MDJB AEROPUERTO INTERNACIONAL JOAQUIN BALAGUER

MDSD AEROPUERTO INTERNACIONAL DE LAS AMERICAS

MDLR AEROPUERTO INTERNACIONAL LA ROMANA

MDCY AEROPUERTO INTERNACIONAL DE CATEY

 

HATY A. MOTA ACOSTA

MDPP// ROBERT LUCIANO

MDST // S.POLANCO

MDPC //  H.FABIAN